createdAt,value
2018-04-23T00:01:44.231Z,"    0"
2018-04-23T00:06:39.912Z,"    0"
2018-04-23T00:11:40.974Z,"    0"
2018-04-23T00:16:36.003Z,"    0"
2018-04-23T00:21:36.049Z,"    0"
2018-04-23T00:26:30.977Z,"    0"
2018-04-23T00:31:26.770Z,"    0"
2018-04-23T00:36:23.543Z,"    0"
2018-04-23T00:41:19.194Z,"    0"
2018-04-23T00:46:16.133Z,"    0"
2018-04-23T00:51:11.953Z,"    0"
2018-04-23T00:56:09.333Z,"    0"
2018-04-23T01:01:07.146Z,"    0"
2018-04-23T01:06:07.375Z,"    0"
2018-04-23T01:11:03.064Z,"    0"
2018-04-23T01:15:58.518Z,"    0"
2018-04-23T01:20:58.057Z,"    0"
2018-04-23T01:25:58.223Z,"    0"
2018-04-23T01:30:53.842Z,"    0"
2018-04-23T01:35:53.658Z,"    0"
2018-04-23T01:40:53.826Z,"    0"
2018-04-23T01:45:52.455Z,"    0"
2018-04-23T01:50:51.733Z,"    0"
2018-04-23T01:55:46.528Z,"    0"
2018-04-23T02:00:42.820Z,"    0"
2018-04-23T02:05:42.827Z,"    0"
2018-04-23T02:10:39.073Z,"    0"
2018-04-23T02:15:39.120Z,"    0"
2018-04-23T02:20:38.133Z,"    0"
2018-04-23T02:25:33.301Z,"    0"
2018-04-23T02:30:29.171Z,"    0"
2018-04-23T02:35:29.129Z,"    0"
2018-04-23T02:40:24.239Z,"    0"
2018-04-23T02:45:20.908Z,"    0"
2018-04-23T02:50:16.974Z,"    0"
2018-04-23T02:55:13.008Z,"    0"
2018-04-23T03:00:13.677Z,"    0"
2018-04-23T03:05:09.895Z,"    0"
2018-04-23T03:10:09.304Z,"    0"
2018-04-23T03:15:05.247Z,"    0"
2018-04-23T03:20:00.618Z,"    0"
2018-04-23T03:24:57.045Z,"    0"
2018-04-23T03:29:54.031Z,"    0"
2018-04-23T03:34:49.705Z,"    0"
2018-04-23T03:39:45.694Z,"    0"
2018-04-23T03:49:43.432Z,"    0"
2018-04-23T03:54:43.855Z,"    0"
2018-04-23T03:59:38.979Z,"    0"
2018-04-23T04:04:36.217Z,"    0"
2018-04-23T04:09:31.970Z,"    0"
2018-04-23T04:14:31.851Z,"    0"
2018-04-23T04:19:30.903Z,"    0"
2018-04-23T04:24:31.582Z,"    5"
2018-04-23T04:29:26.580Z,"   10"
2018-04-23T04:34:22.406Z,"   15"
2018-04-23T04:39:22.152Z,"   10"
2018-04-23T04:44:21.490Z,"    5"
2018-04-23T04:49:20.392Z,"   10"
2018-04-23T04:54:20.561Z,"   10"
2018-04-23T04:59:17.238Z,"   20"
2018-04-23T05:04:13.087Z,"   35"
2018-04-23T05:09:09.000Z,"   25"
2018-04-23T05:14:08.660Z,"   45"
2018-04-23T05:19:09.572Z,"   55"
2018-04-23T05:24:04.180Z,"   55"
2018-04-23T05:29:00.122Z,"   80"
2018-04-23T05:33:57.174Z,"  100"
2018-04-23T05:38:53.297Z,"  120"
2018-04-23T05:43:49.168Z,"  115"
2018-04-23T05:48:49.019Z,"  100"
2018-04-23T05:53:48.259Z,"  110"
2018-04-23T05:58:43.375Z,"  115"
2018-04-23T06:03:39.173Z,"  135"
2018-04-23T06:08:35.185Z,"  120"
2018-04-23T06:13:32.043Z,"  115"
2018-04-23T06:18:31.467Z,"  125"
2018-04-23T06:23:26.752Z,"  160"
2018-04-23T06:28:22.900Z,"  175"
2018-04-23T06:33:19.091Z,"  165"
2018-04-23T06:38:15.112Z,"  150"
2018-04-23T06:43:12.376Z,"  125"
2018-04-23T06:48:11.996Z,"   80"
2018-04-23T06:53:11.735Z,"  130"
2018-04-23T06:58:07.255Z,"  125"
2018-04-23T07:03:03.115Z,"  145"
2018-04-23T07:07:58.897Z,"  150"
2018-04-23T07:12:56.859Z,"  175"
2018-04-23T07:17:53.517Z,"  170"
2018-04-23T07:22:50.538Z,"  205"
2018-04-23T07:27:47.452Z,"  280"
2018-04-23T07:32:43.726Z,"  520"
2018-04-23T07:37:40.318Z,"  315"
2018-04-23T07:42:36.679Z,"  355"
2018-04-23T07:47:33.154Z,"  345"
2018-04-23T07:52:29.038Z,"  265"
2018-04-23T07:57:28.492Z,"  255"
2018-04-23T08:02:23.833Z,"  625"
2018-04-23T08:07:21.166Z,"  865"
2018-04-23T08:12:22.716Z," 1005"
2018-04-23T08:17:18.671Z," 1010"
2018-04-23T08:22:15.453Z," 1215"
2018-04-23T08:27:11.748Z,"  315"
2018-04-23T08:32:07.446Z,"  460"
2018-04-23T08:37:03.010Z,"  270"
2018-04-23T08:42:01.910Z,"  275"
2018-04-23T08:46:56.131Z,"  290"
2018-04-23T08:51:51.487Z,"  275"
2018-04-23T08:56:51.104Z,"  410"
2018-04-23T09:01:47.710Z,"  390"
2018-04-23T09:06:43.393Z,"  310"
2018-04-23T09:11:40.835Z,"  635"
2018-04-23T09:16:38.269Z,"  320"
2018-04-23T09:21:33.807Z,"  420"
2018-04-23T09:26:31.182Z,"  395"
2018-04-23T09:31:30.923Z,"  330"
2018-04-23T09:36:25.786Z,"  370"
2018-04-23T09:41:22.247Z,"  295"
2018-04-23T09:46:18.083Z,"  280"
2018-04-23T09:51:16.003Z,"  540"
2018-04-23T09:56:13.101Z," 1240"
2018-04-23T10:01:10.747Z," 1395"
2018-04-23T10:06:08.791Z," 1430"
2018-04-23T10:11:05.905Z," 1690"
2018-04-23T10:16:02.088Z," 1705"
2018-04-23T10:21:01.986Z," 1740"
2018-04-23T10:25:59.193Z," 1505"
2018-04-23T10:30:56.599Z," 1340"
2018-04-23T10:35:55.825Z," 1020"
2018-04-23T10:40:50.153Z,"  255"
2018-04-23T10:45:43.869Z,"  390"
2018-04-23T10:50:42.877Z,"  275"
2018-04-23T10:55:38.854Z," 1620"
2018-04-23T11:00:40.327Z,"  915"
2018-04-23T11:05:37.100Z,"  425"
2018-04-23T11:10:34.229Z," 1575"
2018-04-23T11:15:31.762Z,"  410"
2018-04-23T11:20:32.588Z," 1745"
2018-04-23T11:25:28.668Z," 1750"
2018-04-23T11:30:29.497Z," 1795"
2018-04-23T11:35:30.141Z," 1580"
2018-04-23T11:40:26.277Z,"  390"
2018-04-23T11:45:27.014Z," 1750"
2018-04-23T11:50:23.870Z," 1770"
2018-04-23T12:00:25.696Z," 1840"
2018-04-23T12:05:25.289Z," 1670"
2018-04-23T12:10:21.319Z," 1720"
2018-04-23T12:15:16.302Z," 1815"
2018-04-23T12:20:09.503Z," 1090"
2018-04-23T12:25:04.277Z,"  385"
2018-04-23T12:30:03.301Z,"  600"
2018-04-23T12:35:03.098Z,"  325"
2018-04-23T12:40:02.567Z,"  405"
2018-04-23T12:44:58.446Z,"  290"
2018-04-23T12:49:54.771Z," 1435"
2018-04-23T12:54:49.737Z,"  730"
2018-04-23T12:59:46.631Z," 1015"
2018-04-23T13:04:43.022Z,"  290"
2018-04-23T13:09:42.165Z,"  355"
2018-04-23T13:14:37.159Z,"  485"
2018-04-23T13:19:37.543Z,"  275"
2018-04-23T13:24:36.344Z,"  250"
2018-04-23T13:29:31.135Z,"  250"
2018-04-23T13:34:27.128Z,"  265"
2018-04-23T13:39:23.252Z,"  255"
2018-04-23T13:44:23.866Z,"  205"
2018-04-23T13:49:19.743Z,"  225"
2018-04-23T13:54:16.468Z,"  220"
2018-04-23T13:59:17.217Z,"  215"
2018-04-23T14:04:20.972Z,"  230"
2018-04-23T14:09:21.349Z,"  190"
2018-04-23T14:14:21.858Z,"  265"
2018-04-23T14:19:27.168Z,"  325"
2018-04-23T14:24:24.211Z,"  820"
2018-04-23T14:29:20.236Z,"  275"
2018-04-23T14:34:17.243Z,"  230"
2018-04-23T14:39:13.944Z,"  210"
2018-04-23T14:44:14.952Z,"  245"
2018-04-23T14:49:10.195Z,"  255"
2018-04-23T14:54:06.264Z,"  230"
2018-04-23T14:59:06.999Z,"  230"
2018-04-23T15:04:01.863Z,"  210"
2018-04-23T15:08:58.152Z,"  210"
2018-04-23T15:13:53.932Z,"  190"
2018-04-23T15:18:49.752Z,"  175"
2018-04-23T15:23:45.504Z,"  145"
2018-04-23T15:28:45.765Z,"  150"
2018-04-23T15:33:41.727Z,"  175"
2018-04-23T15:38:38.712Z,"  180"
2018-04-23T15:43:36.420Z,"  165"
2018-04-23T15:48:35.999Z,"  160"
2018-04-23T15:53:33.302Z,"  155"
2018-04-23T15:58:32.740Z,"  175"
2018-04-23T16:03:32.569Z,"  200"
2018-04-23T16:08:28.575Z,"  200"
2018-04-23T16:13:24.378Z,"  160"
2018-04-23T16:18:21.107Z,"  125"
2018-04-23T16:23:20.659Z,"  110"
2018-04-23T16:28:15.886Z,"  100"
2018-04-23T16:33:17.614Z,"   95"
2018-04-23T16:38:12.487Z,"   90"
2018-04-23T16:43:11.915Z,"   85"
2018-04-23T16:48:12.292Z,"   80"
2018-04-23T16:53:08.291Z,"   80"
2018-04-23T16:58:08.917Z,"   75"
2018-04-23T17:03:04.578Z,"   75"
2018-04-23T17:08:00.458Z,"   70"
2018-04-23T17:12:56.490Z,"   65"
2018-04-23T17:17:53.489Z,"   65"
2018-04-23T17:22:53.271Z,"   65"
2018-04-23T17:27:52.258Z,"   55"
2018-04-23T17:32:47.296Z,"   50"
2018-04-23T17:37:44.094Z,"   45"
2018-04-23T17:42:39.514Z,"   45"
2018-04-23T17:47:35.319Z,"   40"
2018-04-23T17:52:34.865Z,"   40"
2018-04-23T17:57:33.576Z,"   35"
2018-04-23T18:02:28.573Z,"   25"
2018-04-23T18:07:24.578Z,"   20"
2018-04-23T18:12:25.622Z,"   20"
2018-04-23T18:17:20.673Z,"   15"
2018-04-23T18:22:18.059Z,"   10"
2018-04-23T18:27:17.549Z,"    5"
2018-04-23T18:32:16.270Z,"    5"
2018-04-23T18:37:12.185Z,"    5"
2018-04-23T18:42:07.680Z,"    0"
2018-04-23T18:47:07.208Z,"    0"
2018-04-23T18:52:07.026Z,"    0"
2018-04-23T18:57:01.496Z,"    0"
2018-04-23T19:02:00.905Z,"    0"
2018-04-23T19:06:57.240Z,"    0"
2018-04-23T19:11:52.633Z,"    0"
2018-04-23T19:16:52.955Z,"    0"
2018-04-23T19:21:51.573Z,"    0"
2018-04-23T19:26:47.358Z,"    0"
2018-04-23T19:31:43.796Z,"    0"
2018-04-23T19:36:39.701Z,"    0"
2018-04-23T19:41:35.471Z,"    0"
2018-04-23T19:46:31.424Z,"    0"
2018-04-23T19:51:27.103Z,"    0"
2018-04-23T19:56:27.774Z,"    0"
2018-04-23T20:01:23.521Z,"    0"
2018-04-23T20:06:23.900Z,"    0"
2018-04-23T20:11:22.426Z,"    0"
2018-04-23T20:16:21.767Z,"    0"
2018-04-23T20:21:21.648Z,"    0"
2018-04-23T20:26:17.067Z,"    0"
2018-04-23T20:31:12.726Z,"    0"
2018-04-23T20:36:09.342Z,"    0"
2018-04-23T20:41:08.655Z,"    0"
2018-04-23T20:46:03.609Z,"    0"
2018-04-23T20:50:59.224Z,"    0"
2018-04-23T20:55:55.199Z,"    0"
2018-04-23T21:00:54.974Z,"    0"
2018-04-23T21:05:49.877Z,"    0"
2018-04-23T21:10:45.593Z,"    0"
2018-04-23T21:15:42.411Z,"    0"
2018-04-23T21:20:37.914Z,"    0"
2018-04-23T21:25:34.891Z,"    0"
2018-04-23T21:30:34.171Z,"    0"
2018-04-23T21:40:35.862Z,"    0"
2018-04-23T21:45:31.944Z,"    0"
2018-04-23T21:50:31.305Z,"    0"
2018-04-23T21:55:26.210Z,"    0"
2018-04-23T22:00:23.195Z,"    0"
2018-04-23T22:05:23.655Z,"    0"
2018-04-23T22:10:19.014Z,"    0"
2018-04-23T22:15:18.868Z,"    0"
2018-04-23T22:20:13.727Z,"    0"
2018-04-23T22:25:09.536Z,"    0"
2018-04-23T22:30:05.117Z,"    0"
2018-04-23T22:35:01.861Z,"    0"
2018-04-23T22:39:58.414Z,"    0"
2018-04-23T22:44:53.855Z,"    0"
2018-04-23T22:49:49.723Z,"    0"
2018-04-23T22:54:45.622Z,"    0"
2018-04-23T22:59:41.772Z,"    0"
2018-04-23T23:04:37.985Z,"    0"
2018-04-23T23:09:33.916Z,"    0"
2018-04-23T23:14:33.715Z,"    0"
2018-04-23T23:19:29.790Z,"    0"
2018-04-23T23:24:29.596Z,"    0"
2018-04-23T23:29:25.610Z,"    0"
2018-04-23T23:34:25.259Z,"    0"
2018-04-23T23:39:20.262Z,"    0"
2018-04-23T23:44:17.235Z,"    0"
2018-04-23T23:49:13.722Z,"    0"
2018-04-23T23:54:10.283Z,"    0"
2018-04-23T23:59:05.649Z,"    0"
